createdAt,value
2022-11-24T00:01:39.536Z,14.03
2022-11-24T00:06:43.291Z,13.97
2022-11-24T00:11:47.467Z,14.16
2022-11-24T00:16:53.402Z,14.20
2022-11-24T00:21:57.004Z,14.24
2022-11-24T00:27:00.583Z,14.12
2022-11-24T00:32:06.517Z,14.37
2022-11-24T00:37:10.107Z,14.24
2022-11-24T00:42:14.305Z,14.33
2022-11-24T00:47:19.425Z,14.17
2022-11-24T00:52:23.136Z,14.22
2022-11-24T00:57:26.692Z,14.16
2022-11-24T01:02:31.722Z,14.05
2022-11-24T01:07:35.749Z,14.03
2022-11-24T01:12:39.468Z,14.06
2022-11-24T01:17:44.412Z,13.71
2022-11-24T01:22:49.536Z,14.08
2022-11-24T01:27:53.085Z,14.05
2022-11-24T01:32:58.123Z,13.97
2022-11-24T01:38:01.755Z,13.81
2022-11-24T01:43:17.207Z,14.01
2022-11-24T01:48:27.534Z,13.99
2022-11-24T01:53:31.960Z,13.87
2022-11-24T01:58:36.659Z,13.90
2022-11-24T02:03:43.556Z,13.98
2022-11-24T02:08:51.409Z,13.88
2022-11-24T02:13:55.600Z,13.84
2022-11-24T02:19:00.584Z,14.03
2022-11-24T02:24:11.427Z,14.26
2022-11-24T02:29:16.901Z,14.21
2022-11-24T02:34:20.559Z,14.29
2022-11-24T02:39:24.193Z,14.40
2022-11-24T02:44:32.040Z,14.59
2022-11-24T02:49:35.918Z,14.45
2022-11-24T02:54:39.545Z,14.54
2022-11-24T02:59:44.702Z,14.62
2022-11-24T03:04:48.278Z,14.50
2022-11-24T03:09:51.911Z,14.49
2022-11-24T03:14:56.927Z,14.66
2022-11-24T03:20:04.869Z,14.46
2022-11-24T03:25:09.583Z,14.62
2022-11-24T03:30:15.302Z,14.57
2022-11-24T03:35:19.003Z,14.68
2022-11-24T03:40:22.628Z,14.59
2022-11-24T03:45:45.553Z,14.84
2022-11-24T03:50:55.080Z,14.82
2022-11-24T03:55:59.052Z,14.80
2022-11-24T04:01:04.229Z,14.55
2022-11-24T04:06:07.949Z,14.85
2022-11-24T04:11:31.662Z,14.85
2022-11-24T04:16:36.622Z,14.42
2022-11-24T04:21:40.218Z,14.40
2022-11-24T04:26:43.691Z,14.37
2022-11-24T04:31:48.588Z,14.65
2022-11-24T04:36:52.089Z,14.53
2022-11-24T04:41:55.668Z,14.67
2022-11-24T04:47:00.966Z,14.77
2022-11-24T04:52:04.563Z,14.48
2022-11-24T04:57:08.177Z,14.88
2022-11-24T05:02:13.109Z,14.87
2022-11-24T05:07:19.017Z,14.75
2022-11-24T05:12:24.409Z,14.79
2022-11-24T05:17:31.932Z,14.70
2022-11-24T05:22:35.421Z,14.49
2022-11-24T05:27:38.848Z,13.92
2022-11-24T05:32:44.175Z,14.29
2022-11-24T05:37:47.642Z,14.36
2022-11-24T05:42:51.066Z,14.50
2022-11-24T05:47:56.008Z,14.52
2022-11-24T05:53:04.037Z,14.48
2022-11-24T05:58:08.951Z,14.58
2022-11-24T06:03:13.979Z,14.42
2022-11-24T06:08:17.532Z,14.53
2022-11-24T06:13:20.973Z,14.55
2022-11-24T06:18:26.070Z,14.41
2022-11-24T06:23:29.519Z,14.52
2022-11-24T06:28:33.164Z,14.37
2022-11-24T06:33:38.943Z,14.43
2022-11-24T06:38:42.462Z,14.48
2022-11-24T06:43:46.601Z,13.72
2022-11-24T06:48:53.746Z,14.28
2022-11-24T06:53:57.180Z,14.41
2022-11-24T06:59:00.649Z,14.06
2022-11-24T07:04:05.657Z,14.12
2022-11-24T07:09:10.211Z,14.14
2022-11-24T07:14:13.642Z,14.32
2022-11-24T07:19:24.347Z,14.28
2022-11-24T07:24:28.369Z,14.31
2022-11-24T07:29:31.863Z,14.24
2022-11-24T07:34:37.157Z,14.49
2022-11-24T07:39:40.751Z,14.29
2022-11-24T07:44:44.109Z,14.54
2022-11-24T07:49:49.021Z,14.35
2022-11-24T07:54:52.478Z,14.66
2022-11-24T07:59:55.924Z,14.78
2022-11-24T08:05:00.773Z,14.81
2022-11-24T08:10:04.465Z,14.39
2022-11-24T08:15:11.340Z,15.29
2022-11-24T08:20:16.556Z,15.44
2022-11-24T08:25:20.033Z,15.36
2022-11-24T08:30:23.649Z,14.70
2022-11-24T08:35:28.956Z,15.24
2022-11-24T08:40:32.662Z,15.24
2022-11-24T08:45:41.168Z,15.47
2022-11-24T08:50:46.795Z,15.47
2022-11-24T08:55:50.291Z,15.31
2022-11-24T09:00:53.831Z,15.76
2022-11-24T09:05:58.758Z,15.93
2022-11-24T09:11:03.018Z,16.00
2022-11-24T09:16:08.542Z,15.86
2022-11-24T09:21:14.708Z,16.26
2022-11-24T09:26:19.877Z,16.31
2022-11-24T09:31:25.249Z,16.20
2022-11-24T09:36:31.796Z,16.58
2022-11-24T09:41:51.687Z,16.25
2022-11-24T09:47:00.896Z,16.37
2022-11-24T09:52:11.429Z,16.71
2022-11-24T09:57:15.730Z,16.75
2022-11-24T10:02:19.141Z,16.97
2022-11-24T10:07:29.206Z,16.78
2022-11-24T10:12:47.153Z,16.94
2022-11-24T10:18:02.930Z,17.55
2022-11-24T10:23:23.022Z,17.65
2022-11-24T10:28:30.837Z,17.76
2022-11-24T10:33:34.277Z,17.27
2022-11-24T10:38:43.790Z,17.64
2022-11-24T10:43:47.209Z,17.40
2022-11-24T10:48:53.352Z,17.92
2022-11-24T10:54:02.550Z,17.99
2022-11-24T10:59:22.244Z,18.32
2022-11-24T11:04:28.099Z,18.42
2022-11-24T11:09:33.233Z,18.29
2022-11-24T11:14:37.158Z,18.57
2022-11-24T11:20:00.263Z,18.82
2022-11-24T11:25:20.070Z,19.12
2022-11-24T11:35:49.538Z,18.70
2022-11-24T11:40:54.523Z,18.48
2022-11-24T11:46:02.345Z,18.71
2022-11-24T11:51:24.252Z,18.59
2022-11-24T11:56:32.244Z,18.56
2022-11-24T12:02:01.038Z,18.60
2022-11-24T12:07:26.216Z,18.65
2022-11-24T12:12:51.481Z,18.99
2022-11-24T12:17:58.987Z,18.88
2022-11-24T12:23:09.588Z,18.80
2022-11-24T12:28:25.825Z,18.29
2022-11-24T12:34:00.965Z,18.81
2022-11-24T12:39:07.607Z,18.70
2022-11-24T12:44:26.462Z,18.61
2022-11-24T12:49:35.310Z,18.15
2022-11-24T12:54:41.310Z,18.45
2022-11-24T12:59:53.173Z,18.40
2022-11-24T13:05:06.998Z,18.30
2022-11-24T13:10:54.623Z,17.85
2022-11-24T13:22:00.975Z,17.55
2022-11-24T13:27:28.688Z,17.61
2022-11-24T13:33:04.185Z,18.18
2022-11-24T13:38:40.363Z,17.47
2022-11-24T13:44:23.002Z,17.88
2022-11-24T13:49:38.775Z,17.73
2022-11-24T13:54:42.408Z,17.67
2022-11-24T13:59:45.905Z,17.53
2022-11-24T14:04:50.746Z,17.62
2022-11-24T14:09:54.530Z,17.74
2022-11-24T14:15:21.684Z,17.60
2022-11-24T14:20:28.472Z,17.60
2022-11-24T14:25:32.591Z,17.34
2022-11-24T14:30:36.261Z,17.10
2022-11-24T14:35:45.719Z,16.87
2022-11-24T14:40:51.275Z,17.57
2022-11-24T14:45:57.361Z,17.50
2022-11-24T14:51:15.048Z,17.69
2022-11-24T14:56:24.440Z,17.74
2022-11-24T15:01:33.804Z,17.71
2022-11-24T15:06:38.876Z,17.54
2022-11-24T15:11:42.271Z,17.49
2022-11-24T15:16:45.679Z,17.32
2022-11-24T15:21:50.524Z,17.23
2022-11-24T15:27:00.597Z,17.40
2022-11-24T15:32:13.498Z,17.44
2022-11-24T15:37:18.416Z,17.28
2022-11-24T15:42:21.837Z,17.04
2022-11-24T15:47:25.298Z,17.09
2022-11-24T15:52:30.207Z,16.78
2022-11-24T15:57:34.399Z,16.60
2022-11-24T16:02:38.000Z,16.58
2022-11-24T16:07:43.124Z,16.72
2022-11-24T16:12:46.570Z,16.59
2022-11-24T16:17:50.080Z,16.84
2022-11-24T16:22:55.289Z,16.58
2022-11-24T16:27:58.980Z,16.48
2022-11-24T16:33:04.471Z,16.60
2022-11-24T16:38:12.790Z,16.39
2022-11-24T16:43:16.218Z,16.57
2022-11-24T16:48:19.741Z,16.32
2022-11-24T16:53:24.814Z,16.57
2022-11-24T16:58:28.308Z,16.56
2022-11-24T17:03:33.416Z,16.65
2022-11-24T17:08:39.789Z,16.62
2022-11-24T17:13:44.015Z,16.64
2022-11-24T17:18:47.542Z,16.75
2022-11-24T17:23:56.157Z,16.54
2022-11-24T17:29:00.182Z,16.60
2022-11-24T17:34:05.219Z,16.78
2022-11-24T17:39:11.108Z,16.75
2022-11-24T17:44:14.533Z,16.65
2022-11-24T17:49:18.372Z,16.55
2022-11-24T17:59:46.687Z,16.33
2022-11-24T18:04:50.109Z,16.31
2022-11-24T18:09:54.933Z,16.15
2022-11-24T18:14:58.372Z,16.19
2022-11-24T18:20:01.764Z,16.26
2022-11-24T18:25:07.842Z,16.23
2022-11-24T18:30:11.404Z,16.09
2022-11-24T18:35:14.836Z,15.96
2022-11-24T18:40:35.488Z,16.02
2022-11-24T18:45:40.755Z,15.99
2022-11-24T18:50:44.527Z,15.95
2022-11-24T18:55:56.919Z,15.96
2022-11-24T19:01:08.846Z,16.02
2022-11-24T19:06:15.638Z,15.96
2022-11-24T19:11:20.442Z,15.82
2022-11-24T19:16:25.727Z,15.67
2022-11-24T19:21:29.931Z,15.50
2022-11-24T19:26:34.765Z,15.16
2022-11-24T19:31:40.433Z,15.08
2022-11-24T19:36:44.234Z,14.93
2022-11-24T19:41:47.968Z,14.72
2022-11-24T19:46:52.937Z,14.62
2022-11-24T19:51:56.591Z,14.44
2022-11-24T19:57:00.266Z,14.38
2022-11-24T20:02:08.272Z,14.36
2022-11-24T20:07:11.961Z,14.30
2022-11-24T20:12:16.292Z,14.23
2022-11-24T20:17:21.298Z,14.07
2022-11-24T20:22:25.081Z,14.07
2022-11-24T20:27:28.725Z,13.98
2022-11-24T20:32:33.750Z,13.82
2022-11-24T20:37:37.555Z,13.72
2022-11-24T20:42:41.275Z,13.72
2022-11-24T20:47:49.979Z,13.68
2022-11-24T20:52:53.597Z,13.60
2022-11-24T20:57:57.968Z,13.32
2022-11-24T21:03:03.242Z,13.39
2022-11-24T21:08:09.734Z,13.26
2022-11-24T21:13:13.458Z,13.14
2022-11-24T21:18:18.928Z,13.06
2022-11-24T21:23:22.535Z,13.13
2022-11-24T21:28:26.216Z,13.01
2022-11-24T21:33:31.581Z,13.05
2022-11-24T21:38:36.004Z,13.05
2022-11-24T21:43:40.450Z,12.97
2022-11-24T21:48:45.986Z,12.96
2022-11-24T21:53:52.636Z,12.87
2022-11-24T21:58:58.150Z,12.70
2022-11-24T22:04:03.507Z,12.64
2022-11-24T22:09:07.323Z,12.52
2022-11-24T22:14:11.300Z,12.49
2022-11-24T22:19:16.323Z,12.47
2022-11-24T22:24:35.938Z,12.34
2022-11-24T22:29:39.709Z,12.41
2022-11-24T22:34:44.841Z,12.43
2022-11-24T22:39:48.518Z,12.38
2022-11-24T22:44:52.507Z,12.44
2022-11-24T22:49:57.700Z,12.37
2022-11-24T22:55:01.347Z,12.37
2022-11-24T23:00:06.166Z,12.36
2022-11-24T23:05:11.265Z,12.35
2022-11-24T23:10:14.915Z,12.14
2022-11-24T23:15:18.707Z,11.85
2022-11-24T23:20:23.853Z,11.81
2022-11-24T23:25:27.439Z,12.01
2022-11-24T23:30:31.077Z,12.14
2022-11-24T23:35:36.232Z,12.11
2022-11-24T23:40:39.858Z,12.32
2022-11-24T23:45:43.584Z,12.37
2022-11-24T23:50:48.675Z,12.39
2022-11-24T23:55:55.439Z,12.35
